Notice: Undefined index: language in /home/u908952976/domains/airgaviota-va.com/public_html/vam/index.php on line 25
AirGaviota-VA

... VIRTUAL FLIGHT...OUR PASSION



 FLIGHT DETAILS
Pilot: GVT462 Peter Voksan Aircraft: REDEYES - ANTONOV AN-2 (32V_64B) AN-2-GAVIOTAAIRVAAEROTAXI Distance: 79NM
Departure MUVR Arrival MUPB Duration 00:45
Validation Validated Type Charter Tail Number GV-AET
ZFW 4085 Block Fuel/Initial FOB 79/0 Flight Fuel 66
Passengers 23 Cargo 0 Alternate MUHA
Departure Time 1600 Cruise Speed 120 Flight Level 1500
Flight Type VFR Aircraft Type AN2 Weight Unit Kg
Date 19-10-2020 Pilot Comments Network IVAO
Crashed No Validator Comments Flight Rating 70

 ROUTE
ROUTE COASTLINE HABANA
REMARKS
 FLIGHT FAILURES
Crashed OK Beacon off & Engine Running Fail KIAS Above 250 below 10000 FT OK
Lights OFF below 10000 FT OK Lights ON above 10000 FT OK Stall OK
Overspeed OK Flight paused OK Refueling OK
Slew detected OK Taxi & Taxi lights off OK Take off & lights off OK
Landing & lights off OK Landed in not planned airport OK Taxi Speed OK
Wrong altimeter in Take off OK Wrong altimeter in Landing OK
 LANDING ANALYSIS
Landing wind 84º/8 kt Landing heading 141
Landing VS: -79.2 ft/min Landing IAS: 59.62 kt
Landing Force G 1.2 G Landing Bank -1.7
Landing Pitch 0.2 Landing Flaps 0
Navigation Lights ON Landing Lights ON
Beacon Lights OFF Strobe Lights OFF
 FLIGHT MAP
 ALTITUDE CHART
 FLIGHT FINANCIAL REPORT
 MAIN EVENTS
DATE EVENTIASALTITUDE
2020-10-19 17:47:59 SIM ACARS version 1.4.13219
2020-10-19 17:47:59 BOARDING3219
2020-10-19 17:50:16 STARTING ENGINE 1 2219
2020-10-19 17:50:16 BEACON LIGHT OFF & ENGINE ON2219
2020-10-19 17:53:52 FLAPS EXTENSION 1 % 3219
2020-10-19 17:53:53 FLAPS EXTENSION 4 % 3219
2020-10-19 17:53:53 FLAPS EXTENSION 7 % 3219
2020-10-19 17:53:53 FLAPS EXTENSION 8 % 3219
2020-10-19 17:53:53 FLAPS EXTENSION 10 % 3219
2020-10-19 17:53:53 FLAPS EXTENSION 12 % 3219
2020-10-19 17:53:53 FLAPS EXTENSION 13 % 3219
2020-10-19 17:53:54 FLAPS EXTENSION 16 % 3219
2020-10-19 17:53:54 FLAPS EXTENSION 17 % 3219
2020-10-19 17:53:54 FLAPS EXTENSION 19 % 3219
2020-10-19 17:53:54 FLAPS EXTENSION 20 % 3219
2020-10-19 17:53:54 FLAPS EXTENSION 23 % 3219
2020-10-19 17:53:54 FLAPS EXTENSION 25 % 3219
2020-10-19 17:53:54 FLAPS EXTENSION 27 % 3219
2020-10-19 17:53:55 FLAPS EXTENSION 28 % 3219
2020-10-19 17:53:55 FLAPS EXTENSION 30 % 3219
2020-10-19 17:53:55 FLAPS EXTENSION 32 % 3219
2020-10-19 17:53:55 FLAPS EXTENSION 34 % 3219
2020-10-19 17:53:55 FLAPS EXTENSION 36 % 3219
2020-10-19 17:55:06 TAXI TO THE RWY 12219
2020-10-19 17:59:04 TAKE OFF44219
2020-10-19 17:59:37 FLAPS EXTENSION 34 % 54482
2020-10-19 17:59:37 FLAPS EXTENSION 32 % 54484
2020-10-19 17:59:37 FLAPS EXTENSION 30 % 54485
2020-10-19 17:59:37 FLAPS EXTENSION 29 % 54486
2020-10-19 17:59:37 FLAPS EXTENSION 27 % 55487
2020-10-19 17:59:38 FLAPS EXTENSION 22 % 56488
2020-10-19 17:59:38 FLAPS EXTENSION 21 % 56488
2020-10-19 17:59:38 FLAPS EXTENSION 21 % 57489
2020-10-19 17:59:40 FLAPS EXTENSION 19 % 60497
2020-10-19 17:59:40 FLAPS EXTENSION 16 % 60498
2020-10-19 17:59:40 FLAPS EXTENSION 15 % 60500
2020-10-19 17:59:40 FLAPS EXTENSION 12 % 60501
2020-10-19 17:59:40 FLAPS EXTENSION 11 % 60502
2020-10-19 17:59:41 FLAPS EXTENSION 9 % 60503
2020-10-19 17:59:41 FLAPS EXTENSION 7 % 61504
2020-10-19 17:59:41 FLAPS EXTENSION 6 % 61505
2020-10-19 17:59:41 FLAPS EXTENSION 4 % 61507
2020-10-19 17:59:41 FLAPS EXTENSION 1 % 61508
2020-10-19 17:59:41 FLAPS EXTENSION 0 % 61508
2020-10-19 18:01:54 CRUISE791410
2020-10-19 18:03:24 CLIMBING841559
2020-10-19 18:04:04 CRUISE811707
2020-10-19 18:05:24 CLIMBING861863
2020-10-19 18:05:54 CRUISE861927
2020-10-19 18:08:24 DESCEND1221648
2020-10-19 18:09:44 CRUISE1251115
2020-10-19 18:10:34 DESCEND118890
2020-10-19 18:11:24 CLIMBING881023
2020-10-19 18:13:04 CRUISE881583
2020-10-19 18:13:34 CLIMBING821769
2020-10-19 18:14:34 CRUISE951980
2020-10-19 18:16:54 DESCEND1171779
2020-10-19 18:17:44 CRUISE1091822
2020-10-19 18:19:04 DESCEND1171667
2020-10-19 18:19:44 CRUISE1131600
2020-10-19 18:21:04 DESCEND1151456
2020-10-19 18:21:34 CLIMBING951629
2020-10-19 18:23:04 CRUISE971980
2020-10-19 18:25:44 DESCEND1211629
2020-10-19 18:26:34 CRUISE1181442
2020-10-19 18:27:14 DESCEND1171316
2020-10-19 18:27:44 CRUISE1161211
2020-10-19 18:30:24 CLIMBING1021234
2020-10-19 18:31:14 CRUISE1021363
2020-10-19 18:35:04 DESCEND1181413
2020-10-19 18:36:04 CRUISE1191117
2020-10-19 18:37:44 CLIMBING981103
2020-10-19 18:38:24 CRUISE1001306
2020-10-19 18:40:14 DESCEND1201143
2020-10-19 18:41:27 FLAPS EXTENSION 2 % 781276
2020-10-19 18:41:27 FLAPS EXTENSION 4 % 771275
2020-10-19 18:41:27 FLAPS EXTENSION 7 % 771274
2020-10-19 18:41:27 FLAPS EXTENSION 8 % 771274
2020-10-19 18:41:27 FLAPS EXTENSION 10 % 771273
2020-10-19 18:41:27 FLAPS EXTENSION 12 % 771273
2020-10-19 18:41:28 FLAPS EXTENSION 14 % 771273
2020-10-19 18:41:28 FLAPS EXTENSION 15 % 771272
2020-10-19 18:41:34 FLAPS EXTENSION 16 % 731248
2020-10-19 18:41:34 FLAPS EXTENSION 18 % 731247
2020-10-19 18:41:34 FLAPS EXTENSION 20 % 731247
2020-10-19 18:41:34 FLAPS EXTENSION 21 % 721247
2020-10-19 18:41:34 FLAPS EXTENSION 24 % 721246
2020-10-19 18:41:35 FLAPS EXTENSION 25 % 721246
2020-10-19 18:41:35 FLAPS EXTENSION 27 % 721246
2020-10-19 18:41:35 FLAPS EXTENSION 29 % 721246
2020-10-19 18:41:35 FLAPS EXTENSION 31 % 721246
2020-10-19 18:41:35 FLAPS EXTENSION 33 % 711246
2020-10-19 18:41:35 FLAPS EXTENSION 34 % 711245
2020-10-19 18:41:35 FLAPS EXTENSION 35 % 711245
2020-10-19 18:41:44 FLAPS EXTENSION 37 % 691200
2020-10-19 18:41:44 FLAPS EXTENSION 40 % 691199
2020-10-19 18:41:44 FLAPS EXTENSION 41 % 691199
2020-10-19 18:41:44 FLAPS EXTENSION 44 % 681198
2020-10-19 18:41:44 FLAPS EXTENSION 45 % 681198
2020-10-19 18:41:54 CRUISE681182
2020-10-19 18:42:15 FLAPS EXTENSION 46 % 611181
2020-10-19 18:42:15 FLAPS EXTENSION 48 % 611181
2020-10-19 18:42:15 FLAPS EXTENSION 51 % 611181
2020-10-19 18:42:15 FLAPS EXTENSION 52 % 611181
2020-10-19 18:42:15 FLAPS EXTENSION 55 % 611180
2020-10-19 18:42:16 FLAPS EXTENSION 58 % 621180
2020-10-19 18:42:16 FLAPS EXTENSION 60 % 621180
2020-10-19 18:42:16 FLAPS EXTENSION 61 % 621180
2020-10-19 18:42:16 FLAPS EXTENSION 63 % 621180
2020-10-19 18:42:16 FLAPS EXTENSION 65 % 621180
2020-10-19 18:42:16 FLAPS EXTENSION 67 % 621180
2020-10-19 18:42:17 FLAPS EXTENSION 69 % 621180
2020-10-19 18:42:17 FLAPS EXTENSION 71 % 621180
2020-10-19 18:42:17 FLAPS EXTENSION 73 % 621180
2020-10-19 18:42:17 FLAPS EXTENSION 74 % 621181
2020-10-19 18:42:17 FLAPS EXTENSION 77 % 621181
2020-10-19 18:42:17 FLAPS EXTENSION 78 % 621181
2020-10-19 18:42:17 FLAPS EXTENSION 81 % 621182
2020-10-19 18:42:18 FLAPS EXTENSION 82 % 621182
2020-10-19 18:42:18 FLAPS EXTENSION 84 % 621182
2020-10-19 18:42:18 FLAPS EXTENSION 86 % 621183
2020-10-19 18:42:18 FLAPS EXTENSION 88 % 621183
2020-10-19 18:42:18 FLAPS EXTENSION 91 % 621183
2020-10-19 18:42:18 FLAPS EXTENSION 92 % 621183
2020-10-19 18:42:19 FLAPS EXTENSION 94 % 621183
2020-10-19 18:42:19 FLAPS EXTENSION 96 % 631183
2020-10-19 18:42:19 FLAPS EXTENSION 98 % 641183
2020-10-19 18:42:19 FLAPS EXTENSION 100 % 641183
2020-10-19 18:42:54 DESCEND68991
2020-10-19 18:44:44 CRUISE57117
2020-10-19 18:44:53 LANDING60113
2020-10-19 18:44:58 FLAPS EXTENSION 98 % 51113
2020-10-19 18:44:59 FLAPS EXTENSION 96 % 51113
2020-10-19 18:44:59 FLAPS EXTENSION 95 % 50113
2020-10-19 18:44:59 FLAPS EXTENSION 92 % 51113
2020-10-19 18:45:00 FLAPS EXTENSION 85 % 51113
2020-10-19 18:45:00 FLAPS EXTENSION 83 % 51113
2020-10-19 18:45:00 FLAPS EXTENSION 80 % 51113
2020-10-19 18:45:00 FLAPS EXTENSION 78 % 51113
2020-10-19 18:45:00 FLAPS EXTENSION 76 % 51113
2020-10-19 18:45:00 FLAPS EXTENSION 74 % 51113
2020-10-19 18:45:01 FLAPS EXTENSION 72 % 51113
2020-10-19 18:45:01 FLAPS EXTENSION 70 % 50113
2020-10-19 18:45:01 FLAPS EXTENSION 68 % 50113
2020-10-19 18:45:01 FLAPS EXTENSION 66 % 50113
2020-10-19 18:45:01 FLAPS EXTENSION 63 % 49113
2020-10-19 18:45:01 FLAPS EXTENSION 62 % 49113
2020-10-19 18:45:02 FLAPS EXTENSION 59 % 49113
2020-10-19 18:45:02 FLAPS EXTENSION 58 % 48113
2020-10-19 18:45:02 FLAPS EXTENSION 55 % 48113
2020-10-19 18:45:02 FLAPS EXTENSION 52 % 47113
2020-10-19 18:45:02 FLAPS EXTENSION 50 % 47113
2020-10-19 18:45:03 FLAPS EXTENSION 48 % 47113
2020-10-19 18:45:03 FLAPS EXTENSION 46 % 47112
2020-10-19 18:45:03 FLAPS EXTENSION 44 % 46112
2020-10-19 18:45:03 FLAPS EXTENSION 42 % 46112
2020-10-19 18:45:03 FLAPS EXTENSION 39 % 46112
2020-10-19 18:45:03 FLAPS EXTENSION 37 % 45112
2020-10-19 18:45:04 FLAPS EXTENSION 34 % 45112
2020-10-19 18:45:04 FLAPS EXTENSION 33 % 44112
2020-10-19 18:45:04 FLAPS EXTENSION 31 % 44112
2020-10-19 18:45:04 FLAPS EXTENSION 29 % 44112
2020-10-19 18:45:04 FLAPS EXTENSION 27 % 44112
2020-10-19 18:45:05 FLAPS EXTENSION 25 % 44112
2020-10-19 18:45:05 FLAPS EXTENSION 22 % 43112
2020-10-19 18:45:05 FLAPS EXTENSION 20 % 43112
2020-10-19 18:45:05 FLAPS EXTENSION 18 % 42112
2020-10-19 18:45:05 FLAPS EXTENSION 16 % 42112
2020-10-19 18:45:05 FLAPS EXTENSION 14 % 42112
2020-10-19 18:45:06 FLAPS EXTENSION 12 % 41112
2020-10-19 18:45:06 FLAPS EXTENSION 10 % 41112
2020-10-19 18:45:06 FLAPS EXTENSION 9 % 40112
2020-10-19 18:45:17 FLAPS EXTENSION 8 % 23112
2020-10-19 18:45:17 FLAPS EXTENSION 6 % 22112
2020-10-19 18:45:18 FLAPS EXTENSION 3 % 22112
2020-10-19 18:45:18 FLAPS EXTENSION 2 % 22112
2020-10-19 18:45:18 FLAPS EXTENSION 0 % 22112
2020-10-19 18:45:19 TAXI TO THE GATE20112
 ACARS DATA
DATE IASGSALTITUDEFUEL CONSUMED OATFLIGHT STATUS
2020-10-19 17:48:5920218024BOARDING
2020-10-19 17:49:5910218024BOARDING
2020-10-19 17:50:5930218124BOARDING
2020-10-19 17:51:5930218224BOARDING
2020-10-19 17:52:5930218324BOARDING
2020-10-19 17:53:5920218424BOARDING
2020-10-19 17:54:5996218424BOARDING
2020-10-19 17:55:5920218524TAXI TO THE RWY
2020-10-19 17:56:5920218624TAXI TO THE RWY
2020-10-19 17:57:5920218724TAXI TO THE RWY
2020-10-19 17:58:592930219824TAXI TO THE RWY
2020-10-19 17:59:5963706721123CLIMBING
2020-10-19 18:00:59738110971322CLIMBING
2020-10-19 18:01:59828814141521CRUISE
2020-10-19 18:02:59839115451621CRUISE
2020-10-19 18:03:59788516991721CLIMBING
2020-10-19 18:04:59798718231920CRUISE
2020-10-19 18:05:59839419242021CRUISE
2020-10-19 18:06:599610919732122CRUISE
2020-10-19 18:07:599711220222322CRUISE
2020-10-19 18:08:5911112615572423DESCEND
2020-10-19 18:09:5911813310422524CRUISE
2020-10-19 18:10:591121257482725DESCEND
2020-10-19 18:11:598910011832824CLIMBING
2020-10-19 18:12:59859515913023CLIMBING
2020-10-19 18:13:599010318603122CLIMBING
2020-10-19 18:14:5910111520393322CRUISE
2020-10-19 18:15:5911412918803422CRUISE
2020-10-19 18:16:5911913517273623DESCEND
2020-10-19 18:17:5911212617813722CRUISE
2020-10-19 18:18:5911312617033923CRUISE
2020-10-19 18:19:5911212315994023CRUISE
2020-10-19 18:20:5911212315124223CRUISE
2020-10-19 18:21:599010117964422CLIMBING
2020-10-19 18:22:599410719944522CLIMBING
2020-10-19 18:23:5911913117894622CRUISE
2020-10-19 18:24:5910211418824822CRUISE
2020-10-19 18:25:5912413714874923DESCEND
2020-10-19 18:26:5911412513835023CRUISE
2020-10-19 18:27:5911412711965224CRUISE
2020-10-19 18:28:5910411612685324CRUISE
2020-10-19 18:29:5910912211435524CRUISE
2020-10-19 18:30:599911113535623CLIMBING
2020-10-19 18:31:5911112313635823CRUISE
2020-10-19 18:32:599410615615923CRUISE
2020-10-19 18:33:5910211416336123CRUISE
2020-10-19 18:34:5911913114286223CRUISE
2020-10-19 18:35:5912213211306424DESCEND
2020-10-19 18:36:5911312610096524CRUISE
2020-10-19 18:37:59849513016723CLIMBING
2020-10-19 18:38:5910111313326823CRUISE
2020-10-19 18:39:5911512012457024CRUISE
2020-10-19 18:40:59919912837124DESCEND
2020-10-19 18:41:59677811717324CRUISE
2020-10-19 18:42:5966739387424DESCEND
2020-10-19 18:43:5956532637526DESCEND
2020-10-19 18:44:5950511127626LANDED
2020-10-19 18:45:5913121127726TAXI TO THE GATE
2020-10-19 18:46:5915151117826TAXI TO THE GATE
2020-10-19 18:47:59301117926TAXI TO THE GATE